createdAt,value
2023-03-23T15:58:46.972Z,20.10
2023-03-23T16:01:20.159Z,13.90
2023-03-23T16:03:49.040Z,13.80
2023-03-23T16:06:23.262Z,35.10
2023-03-23T16:08:55.392Z,14.40
2023-03-23T16:11:25.128Z,31.80
2023-03-23T16:13:52.745Z,28.90
2023-03-23T16:16:26.258Z,32.00
2023-03-23T16:18:54.050Z,27.70
2023-03-23T16:21:22.524Z,34.00
2023-03-23T16:23:50.611Z,18.00
2023-03-23T16:26:18.306Z,31.40
2023-03-23T16:28:46.175Z,32.00
2023-03-23T16:31:14.039Z,21.20
2023-03-23T16:33:41.796Z,41.60
2023-03-23T16:36:12.146Z,35.80
2023-03-23T16:38:49.947Z,76.00
2023-03-23T16:41:19.402Z,31.20
2023-03-23T16:43:47.179Z,27.10
2023-03-23T16:46:14.824Z,64.60
2023-03-23T16:48:42.716Z,50.60
2023-03-23T16:51:10.334Z,30.80
2023-03-23T16:53:38.037Z,17.80
2023-03-23T16:56:05.905Z,14.60
2023-03-23T16:58:33.540Z,9.90
2023-03-23T17:01:01.217Z,8.00
2023-03-23T17:03:29.235Z,19.60
2023-03-23T17:05:57.024Z,7.00
2023-03-23T17:08:24.697Z,6.50
2023-03-23T17:10:52.492Z,7.80
2023-03-23T17:13:20.555Z,25.70
2023-03-23T17:15:48.401Z,18.90
2023-03-23T17:18:16.765Z,11.30
2023-03-23T17:20:44.490Z,10.50
2023-03-23T17:23:12.090Z,9.80
2023-03-23T17:25:39.798Z,8.10
2023-03-23T17:28:07.537Z,11.40
2023-03-23T17:30:35.421Z,8.60
2023-03-23T17:33:03.279Z,12.40
2023-03-23T17:35:31.262Z,25.90
2023-03-23T17:37:59.129Z,26.50
2023-03-23T17:40:27.113Z,16.00
2023-03-23T17:42:54.949Z,12.60
2023-03-23T17:45:22.495Z,11.10
2023-03-23T17:47:50.584Z,12.00
2023-03-23T17:50:18.467Z,34.40
2023-03-23T17:52:46.277Z,24.80
2023-03-23T17:55:13.911Z,23.30
2023-03-23T17:57:41.931Z,28.50
2023-03-23T18:00:11.397Z,31.80
2023-03-23T18:02:39.255Z,51.70
2023-03-23T18:05:09.382Z,29.60
2023-03-23T18:07:37.138Z,16.50
2023-03-23T18:10:11.662Z,21.20
2023-03-23T18:12:40.641Z,21.00
2023-03-23T18:15:09.160Z,17.30
2023-03-23T18:17:36.908Z,34.00
2023-03-23T18:20:05.217Z,30.00
2023-03-23T18:22:32.890Z,22.90
2023-03-23T18:25:02.833Z,39.40
2023-03-23T18:27:30.710Z,15.10
2023-03-23T18:29:58.996Z,17.10
2023-03-23T18:32:27.960Z,18.50
2023-03-23T18:34:56.319Z,11.80
2023-03-23T18:37:24.343Z,10.80
2023-03-23T18:39:53.932Z,14.90
2023-03-23T18:42:22.230Z,13.90
2023-03-23T18:44:50.230Z,24.50
2023-03-23T18:47:18.503Z,18.90
2023-03-23T18:49:47.672Z,15.80
2023-03-23T18:52:16.145Z,19.40
2023-03-23T18:54:45.408Z,21.40
2023-03-23T18:57:13.406Z,19.40
2023-03-23T18:59:41.427Z,16.00
2023-03-23T19:02:10.133Z,18.10
2023-03-23T19:04:38.184Z,18.80
2023-03-23T19:07:06.083Z,13.40
2023-03-23T19:09:34.848Z,15.60
2023-03-23T19:12:02.574Z,26.10
2023-03-23T19:14:31.019Z,20.70
2023-03-23T19:16:58.655Z,40.90
2023-03-23T19:19:27.030Z,30.10
2023-03-23T19:21:55.258Z,20.60
2023-03-23T19:24:23.271Z,44.10
2023-03-23T19:26:51.707Z,29.20
2023-03-23T19:29:26.645Z,20.00
2023-03-23T19:31:55.920Z,21.20
2023-03-23T19:34:26.413Z,19.40
2023-03-23T19:37:03.230Z,29.30
2023-03-23T19:39:38.561Z,32.80
2023-03-23T19:42:07.120Z,33.50
2023-03-23T19:44:35.100Z,29.70
2023-03-23T19:47:02.945Z,57.60
2023-03-23T19:49:30.711Z,50.60
2023-03-23T19:52:07.912Z,33.90
2023-03-23T19:54:38.754Z,44.00
2023-03-23T19:57:07.014Z,24.70
2023-03-23T19:59:34.895Z,50.00
2023-03-23T20:02:03.762Z,31.40
2023-03-23T20:04:31.511Z,19.40
2023-03-23T20:07:00.092Z,10.40
2023-03-23T20:09:28.514Z,57.70
2023-03-23T20:11:56.391Z,31.90
2023-03-23T20:14:25.748Z,30.90
2023-03-23T20:16:53.916Z,28.00
2023-03-23T20:19:22.059Z,25.30
2023-03-23T20:21:49.679Z,25.80
2023-03-23T20:24:17.306Z,27.40
2023-03-23T20:26:45.614Z,9.10
2023-03-23T20:29:13.222Z,7.90
2023-03-23T20:31:41.264Z,7.50
2023-03-23T20:34:14.081Z,7.00
2023-03-23T20:36:45.264Z,8.60
2023-03-23T20:39:15.628Z,38.90
2023-03-23T20:41:43.724Z,29.50
2023-03-23T20:44:13.996Z,23.50
2023-03-23T20:46:42.956Z,46.10
2023-03-23T20:49:10.707Z,54.20
2023-03-23T20:51:38.437Z,46.30
2023-03-23T20:54:06.200Z,43.20
2023-03-23T20:56:34.368Z,39.40
2023-03-23T20:59:02.546Z,83.60
2023-03-23T21:01:33.012Z,39.10
2023-03-23T21:04:03.211Z,27.40
2023-03-23T21:06:31.413Z,30.40
2023-03-23T21:08:59.427Z,15.00
2023-03-23T21:11:27.287Z,11.10
2023-03-23T21:13:54.852Z,13.60
2023-03-23T21:16:24.351Z,17.40
2023-03-23T21:18:52.291Z,10.50
2023-03-23T21:21:20.383Z,11.20
2023-03-23T21:23:52.084Z,10.20
2023-03-23T21:26:24.541Z,8.70
2023-03-23T21:28:54.266Z,7.60
2023-03-23T21:31:23.471Z,8.90
2023-03-23T21:33:51.119Z,6.80
2023-03-23T21:36:18.711Z,8.10
2023-03-23T21:38:50.148Z,8.40
2023-03-23T21:41:17.852Z,8.00
2023-03-23T21:43:46.095Z,6.00
2023-03-23T21:46:18.227Z,6.10
2023-03-23T21:48:51.570Z,5.80
2023-03-23T21:51:24.131Z,6.60
2023-03-23T21:53:54.413Z,5.00
2023-03-23T21:56:24.332Z,4.10
2023-03-23T21:58:52.018Z,4.20
2023-03-23T22:01:19.843Z,3.60
2023-03-23T22:03:47.889Z,3.20
2023-03-23T22:06:23.541Z,3.90
2023-03-23T22:08:51.390Z,4.60
2023-03-23T22:11:24.006Z,3.70
2023-03-23T22:13:52.700Z,5.00
2023-03-23T22:16:20.950Z,4.10
2023-03-23T22:18:49.373Z,4.00
2023-03-23T22:21:17.442Z,4.80
2023-03-23T22:23:45.446Z,4.40
2023-03-23T22:26:14.003Z,4.70
2023-03-23T22:28:42.005Z,4.40
2023-03-23T22:31:17.658Z,4.60
2023-03-23T22:33:46.153Z,4.70
2023-03-23T22:36:14.017Z,5.10
2023-03-23T22:38:43.797Z,4.90
2023-03-23T22:41:16.269Z,4.40
2023-03-23T22:46:11.504Z,4.50
2023-03-23T22:48:39.349Z,4.80
2023-03-23T22:51:07.352Z,5.30
2023-03-23T22:53:35.029Z,4.90
2023-03-23T22:56:02.941Z,4.90
2023-03-23T22:58:30.889Z,4.20
2023-03-23T23:01:02.470Z,3.90
2023-03-23T23:03:30.460Z,4.80
2023-03-23T23:05:58.541Z,4.70
2023-03-23T23:08:27.450Z,5.20
2023-03-23T23:10:56.351Z,4.20
2023-03-23T23:13:24.584Z,4.10
2023-03-23T23:15:53.485Z,3.80
2023-03-23T23:18:21.344Z,4.20
2023-03-23T23:20:54.734Z,4.20
2023-03-23T23:23:23.187Z,4.30
2023-03-23T23:25:50.980Z,4.30
2023-03-23T23:28:19.431Z,4.20
2023-03-23T23:30:47.654Z,4.80
2023-03-23T23:33:15.684Z,4.10
2023-03-23T23:35:43.652Z,4.50
2023-03-23T23:38:12.711Z,4.60
2023-03-23T23:40:43.943Z,4.30
2023-03-23T23:43:13.309Z,4.30
2023-03-23T23:45:41.157Z,5.00
2023-03-23T23:48:09.010Z,4.50
2023-03-23T23:50:36.930Z,4.40
2023-03-23T23:53:05.002Z,4.60
2023-03-23T23:55:32.758Z,4.80
2023-03-23T23:58:00.626Z,4.80
